Pagina principale
METAR-TAF:

METAR-TAF

Aeroporti :

Irene, Sudafrica

latitudine: 25-54-36S, longitudine: 28-12-40E, altezza: 1523 m

Osservazione

Il bollettino è stato emesso 3 ore e 14 minuti fa, alle 09:34 UTC
Vento 3 kt da nord-est
Temperature 20°C
Umidità 21%
Pressione 1030 hPa
Visibilità 10 km o più
nessuna nube inferiore a 1500 m e nessun cumulonembo

METAR: FAIR 160934Z 04003KT CAVOK 20/M03 Q1030

Ora: 14:48 (12:48 UTC)


TAF: mancante

Osservazioni e previsioni meteorologiche di più di 4000 aeroporti (messaggi METAR e TAF).

Le stazioni disponibili sono rappresentate dai dischi gialli e rossi sulla carta.

Puntare il mouse per vedere il nome della stazione.

Clicca sopra per visualizzare le osservazioni e previsioni meteorologiche.

Per cambiare la mappa : fare clic sui pulsanti verdi con una croce nera per ingrandire, il pulsante verde con un trattino per diminuire, o sulla freccia verde per le mappe adiacenti.


METAR-TAF: